KMDD/MDD METAR and TAF weather

Enter ICAO airport designator
Station Type Date Time Source
KMDD METAR 2020/07/10 21:35 UTC NOAA

KMDD 102135Z AUTO 18010G15KT 10SM CLR 39/12 A3002 RMK AO2 T03950123


Station Type Date Time Source
KMDD Decoded METAR 2020/07/10 21:35 UTC NOAA

Midland, Midland Airpark, TX, United States (KMDD) 32-02-11N 102-06-03W
Jul 10, 2020 - 05:35 PM EDT / 2020.07.10 2135 UTC
Wind: from the S (180 degrees) at 12 MPH (10 KT) gusting to 17 MPH (15 KT):0
Visibility: 10 mile(s):0
Sky conditions: clear
Temperature: 103.1 F (39.5 C)
Heat index: 101.1 F (38.4 C):1
Dew Point: 54.1 F (12.3 C)
Relative Humidity: 19%
Pressure (altimeter): 30.02 in. Hg (1016 hPa)
ob: KMDD 102135Z AUTO 18010G15KT 10SM CLR 39/12 A3002 RMK AO2 T03950123
cycle: 21

Station Type Date Time Source
KMDD TAF UTC NOAA

Error!

Example: see airport list